sensor_id;sensor_type;location;lat;lon;timestamp;P1;durP1;ratioP1;P2;durP2;ratioP2
43706;SDS011;61348;53.392;-6.248;2023-03-03T00:01:47;2.42;;;1.52;;
43706;SDS011;61348;53.392;-6.248;2023-03-03T00:04:13;5.35;;;1.05;;
43706;SDS011;61348;53.392;-6.248;2023-03-03T00:06:40;2.33;;;0.90;;
43706;SDS011;61348;53.392;-6.248;2023-03-03T00:09:07;1.95;;;0.82;;
43706;SDS011;61348;53.392;-6.248;2023-03-03T00:11:33;1.45;;;0.68;;
43706;SDS011;61348;53.392;-6.248;2023-03-03T00:14:00;1.23;;;0.55;;
43706;SDS011;61348;53.392;-6.248;2023-03-03T00:16:30;2.55;;;0.80;;
43706;SDS011;61348;53.392;-6.248;2023-03-03T00:19:02;3.85;;;2.17;;
43706;SDS011;61348;53.392;-6.248;2023-03-03T00:21:43;5.78;;;3.20;;
43706;SDS011;61348;53.392;-6.248;2023-03-03T00:24:16;7.63;;;5.65;;
43706;SDS011;61348;53.392;-6.248;2023-03-03T00:26:51;9.75;;;6.90;;
43706;SDS011;61348;53.392;-6.248;2023-03-03T00:32:22;16.45;;;8.00;;
43706;SDS011;61348;53.392;-6.248;2023-03-03T00:34:50;10.98;;;7.57;;
43706;SDS011;61348;53.392;-6.248;2023-03-03T00:37:24;11.57;;;6.45;;
43706;SDS011;61348;53.392;-6.248;2023-03-03T00:39:52;6.40;;;3.80;;
43706;SDS011;61348;53.392;-6.248;2023-03-03T00:42:18;6.25;;;3.35;;
43706;SDS011;61348;53.392;-6.248;2023-03-03T00:44:46;6.68;;;2.58;;
43706;SDS011;61348;53.392;-6.248;2023-03-03T00:47:25;6.03;;;3.15;;
43706;SDS011;61348;53.392;-6.248;2023-03-03T00:52:37;3.08;;;1.30;;
43706;SDS011;61348;53.392;-6.248;2023-03-03T00:55:06;2.33;;;1.00;;
43706;SDS011;61348;53.392;-6.248;2023-03-03T00:57:33;1.75;;;1.02;;
43706;SDS011;61348;53.392;-6.248;2023-03-03T01:00:00;6.80;;;1.52;;
43706;SDS011;61348;53.392;-6.248;2023-03-03T01:02:27;0.80;;;0.80;;
43706;SDS011;61348;53.392;-6.248;2023-03-03T01:04:54;2.70;;;0.98;;
43706;SDS011;61348;53.392;-6.248;2023-03-03T01:07:22;1.60;;;0.80;;
43706;SDS011;61348;53.392;-6.248;2023-03-03T01:09:49;5.00;;;1.00;;
43706;SDS011;61348;53.392;-6.248;2023-03-03T01:12:15;1.45;;;0.90;;
43706;SDS011;61348;53.392;-6.248;2023-03-03T01:14:42;1.15;;;0.80;;
43706;SDS011;61348;53.392;-6.248;2023-03-03T01:17:10;2.22;;;0.70;;
43706;SDS011;61348;53.392;-6.248;2023-03-03T01:19:37;1.58;;;0.60;;
43706;SDS011;61348;53.392;-6.248;2023-03-03T01:22:04;2.67;;;0.70;;
43706;SDS011;61348;53.392;-6.248;2023-03-03T01:24:30;4.47;;;0.70;;
43706;SDS011;61348;53.392;-6.248;2023-03-03T01:26:57;2.63;;;1.00;;
43706;SDS011;61348;53.392;-6.248;2023-03-03T01:29:23;1.48;;;0.60;;
43706;SDS011;61348;53.392;-6.248;2023-03-03T01:31:50;2.55;;;1.30;;
43706;SDS011;61348;53.392;-6.248;2023-03-03T01:34:17;3.53;;;1.00;;
43706;SDS011;61348;53.392;-6.248;2023-03-03T01:36:43;1.67;;;0.95;;
43706;SDS011;61348;53.392;-6.248;2023-03-03T01:39:10;2.28;;;1.10;;
43706;SDS011;61348;53.392;-6.248;2023-03-03T01:41:37;2.97;;;0.90;;
43706;SDS011;61348;53.392;-6.248;2023-03-03T01:44:04;5.75;;;1.17;;
43706;SDS011;61348;53.392;-6.248;2023-03-03T01:46:47;2.88;;;1.20;;
43706;SDS011;61348;53.392;-6.248;2023-03-03T01:49:33;1.75;;;0.80;;
43706;SDS011;61348;53.392;-6.248;2023-03-03T01:52:26;3.78;;;1.05;;
43706;SDS011;61348;53.392;-6.248;2023-03-03T01:55:03;3.00;;;0.70;;
43706;SDS011;61348;53.392;-6.248;2023-03-03T01:57:43;1.23;;;0.82;;
43706;SDS011;61348;53.392;-6.248;2023-03-03T02:00:14;3.05;;;0.70;;
43706;SDS011;61348;53.392;-6.248;2023-03-03T02:02:42;2.30;;;0.85;;
43706;SDS011;61348;53.392;-6.248;2023-03-03T02:05:09;1.45;;;0.77;;
43706;SDS011;61348;53.392;-6.248;2023-03-03T02:07:36;3.30;;;1.00;;
43706;SDS011;61348;53.392;-6.248;2023-03-03T02:10:10;3.42;;;0.40;;
43706;SDS011;61348;53.392;-6.248;2023-03-03T02:12:42;1.52;;;0.68;;
43706;SDS011;61348;53.392;-6.248;2023-03-03T02:17:54;1.83;;;0.90;;
43706;SDS011;61348;53.392;-6.248;2023-03-03T02:25:31;1.98;;;0.70;;
43706;SDS011;61348;53.392;-6.248;2023-03-03T02:28:07;5.07;;;0.90;;
43706;SDS011;61348;53.392;-6.248;2023-03-03T02:30:36;2.05;;;0.68;;
43706;SDS011;61348;53.392;-6.248;2023-03-03T02:33:05;1.40;;;0.60;;
43706;SDS011;61348;53.392;-6.248;2023-03-03T02:35:33;1.33;;;0.70;;
43706;SDS011;61348;53.392;-6.248;2023-03-03T02:38:11;1.10;;;0.80;;
43706;SDS011;61348;53.392;-6.248;2023-03-03T02:46:24;1.73;;;0.82;;
43706;SDS011;61348;53.392;-6.248;2023-03-03T02:48:51;4.60;;;0.63;;
43706;SDS011;61348;53.392;-6.248;2023-03-03T02:51:18;2.90;;;0.77;;
43706;SDS011;61348;53.392;-6.248;2023-03-03T02:53:45;1.05;;;0.80;;
43706;SDS011;61348;53.392;-6.248;2023-03-03T02:56:12;2.97;;;0.80;;
43706;SDS011;61348;53.392;-6.248;2023-03-03T02:58:39;5.57;;;1.30;;
43706;SDS011;61348;53.392;-6.248;2023-03-03T03:01:06;1.98;;;0.98;;
43706;SDS011;61348;53.392;-6.248;2023-03-03T03:03:33;0.95;;;0.77;;
43706;SDS011;61348;53.392;-6.248;2023-03-03T03:05:59;2.95;;;1.10;;
43706;SDS011;61348;53.392;-6.248;2023-03-03T03:08:26;4.47;;;1.23;;
43706;SDS011;61348;53.392;-6.248;2023-03-03T03:10:53;1.55;;;1.45;;
43706;SDS011;61348;53.392;-6.248;2023-03-03T03:13:19;1.20;;;0.90;;
43706;SDS011;61348;53.392;-6.248;2023-03-03T03:15:46;1.80;;;0.73;;
43706;SDS011;61348;53.392;-6.248;2023-03-03T03:18:13;1.73;;;1.08;;
43706;SDS011;61348;53.392;-6.248;2023-03-03T03:20:40;2.15;;;0.70;;
43706;SDS011;61348;53.392;-6.248;2023-03-03T03:23:07;1.05;;;0.93;;
43706;SDS011;61348;53.392;-6.248;2023-03-03T03:25:35;3.10;;;0.85;;
43706;SDS011;61348;53.392;-6.248;2023-03-03T03:28:07;2.25;;;1.20;;
43706;SDS011;61348;53.392;-6.248;2023-03-03T03:30:35;2.92;;;1.10;;
43706;SDS011;61348;53.392;-6.248;2023-03-03T03:33:02;1.85;;;1.20;;
43706;SDS011;61348;53.392;-6.248;2023-03-03T03:35:29;1.20;;;0.80;;
43706;SDS011;61348;53.392;-6.248;2023-03-03T03:37:58;3.15;;;1.00;;
43706;SDS011;61348;53.392;-6.248;2023-03-03T03:40:24;3.45;;;0.90;;
43706;SDS011;61348;53.392;-6.248;2023-03-03T03:42:52;1.88;;;0.65;;
43706;SDS011;61348;53.392;-6.248;2023-03-03T03:45:19;2.35;;;0.98;;
43706;SDS011;61348;53.392;-6.248;2023-03-03T03:47:48;0.93;;;0.80;;
43706;SDS011;61348;53.392;-6.248;2023-03-03T03:50:14;4.90;;;1.08;;
43706;SDS011;61348;53.392;-6.248;2023-03-03T03:52:41;2.08;;;0.52;;
43706;SDS011;61348;53.392;-6.248;2023-03-03T03:55:08;1.45;;;0.90;;
43706;SDS011;61348;53.392;-6.248;2023-03-03T03:57:35;1.73;;;0.93;;
43706;SDS011;61348;53.392;-6.248;2023-03-03T04:00:03;2.35;;;1.17;;
43706;SDS011;61348;53.392;-6.248;2023-03-03T04:02:31;1.30;;;1.20;;
43706;SDS011;61348;53.392;-6.248;2023-03-03T04:04:58;3.53;;;1.40;;
43706;SDS011;61348;53.392;-6.248;2023-03-03T04:07:24;3.30;;;0.90;;
43706;SDS011;61348;53.392;-6.248;2023-03-03T04:09:51;2.15;;;0.80;;
43706;SDS011;61348;53.392;-6.248;2023-03-03T04:12:18;3.78;;;1.23;;
43706;SDS011;61348;53.392;-6.248;2023-03-03T04:14:44;1.45;;;1.20;;
43706;SDS011;61348;53.392;-6.248;2023-03-03T04:17:15;1.35;;;0.98;;
43706;SDS011;61348;53.392;-6.248;2023-03-03T04:19:43;1.65;;;1.30;;
43706;SDS011;61348;53.392;-6.248;2023-03-03T04:22:11;3.00;;;1.65;;
43706;SDS011;61348;53.392;-6.248;2023-03-03T04:24:39;7.18;;;1.38;;
43706;SDS011;61348;53.392;-6.248;2023-03-03T04:27:06;2.25;;;1.40;;
43706;SDS011;61348;53.392;-6.248;2023-03-03T04:29:34;3.45;;;1.73;;
43706;SDS011;61348;53.392;-6.248;2023-03-03T04:32:01;2.92;;;1.20;;
43706;SDS011;61348;53.392;-6.248;2023-03-03T04:34:28;1.88;;;1.25;;
43706;SDS011;61348;53.392;-6.248;2023-03-03T04:36:54;2.05;;;1.38;;
43706;SDS011;61348;53.392;-6.248;2023-03-03T04:39:21;4.80;;;1.45;;
43706;SDS011;61348;53.392;-6.248;2023-03-03T04:41:48;1.30;;;1.20;;
43706;SDS011;61348;53.392;-6.248;2023-03-03T04:44:14;3.63;;;1.50;;
43706;SDS011;61348;53.392;-6.248;2023-03-03T04:46:41;1.75;;;1.38;;
43706;SDS011;61348;53.392;-6.248;2023-03-03T04:49:08;2.42;;;1.58;;
43706;SDS011;61348;53.392;-6.248;2023-03-03T04:51:37;2.85;;;1.58;;
43706;SDS011;61348;53.392;-6.248;2023-03-03T04:54:05;2.80;;;1.38;;
43706;SDS011;61348;53.392;-6.248;2023-03-03T04:56:31;5.25;;;1.42;;
43706;SDS011;61348;53.392;-6.248;2023-03-03T04:58:58;2.28;;;1.35;;
43706;SDS011;61348;53.392;-6.248;2023-03-03T05:01:25;6.15;;;1.60;;
43706;SDS011;61348;53.392;-6.248;2023-03-03T05:03:52;2.22;;;1.50;;
43706;SDS011;61348;53.392;-6.248;2023-03-03T05:06:19;1.80;;;1.30;;
43706;SDS011;61348;53.392;-6.248;2023-03-03T05:08:46;2.47;;;1.77;;
43706;SDS011;61348;53.392;-6.248;2023-03-03T05:11:13;4.25;;;1.15;;
43706;SDS011;61348;53.392;-6.248;2023-03-03T05:13:39;2.85;;;1.40;;
43706;SDS011;61348;53.392;-6.248;2023-03-03T05:16:06;4.25;;;1.23;;
43706;SDS011;61348;53.392;-6.248;2023-03-03T05:18:33;2.20;;;1.63;;
43706;SDS011;61348;53.392;-6.248;2023-03-03T05:21:00;3.70;;;1.80;;
43706;SDS011;61348;53.392;-6.248;2023-03-03T05:23:27;1.33;;;1.20;;
43706;SDS011;61348;53.392;-6.248;2023-03-03T05:25:54;2.45;;;1.50;;
43706;SDS011;61348;53.392;-6.248;2023-03-03T05:28:21;2.92;;;1.63;;
43706;SDS011;61348;53.392;-6.248;2023-03-03T05:30:48;6.10;;;2.53;;
43706;SDS011;61348;53.392;-6.248;2023-03-03T05:33:15;3.05;;;1.80;;
43706;SDS011;61348;53.392;-6.248;2023-03-03T05:35:42;1.73;;;1.63;;
43706;SDS011;61348;53.392;-6.248;2023-03-03T05:38:09;1.52;;;1.42;;
43706;SDS011;61348;53.392;-6.248;2023-03-03T05:40:37;1.67;;;1.58;;
43706;SDS011;61348;53.392;-6.248;2023-03-03T05:43:04;2.78;;;1.70;;
43706;SDS011;61348;53.392;-6.248;2023-03-03T05:45:32;5.90;;;2.25;;
43706;SDS011;61348;53.392;-6.248;2023-03-03T05:47:59;4.40;;;2.20;;
43706;SDS011;61348;53.392;-6.248;2023-03-03T05:50:26;4.43;;;2.03;;
43706;SDS011;61348;53.392;-6.248;2023-03-03T05:52:54;2.92;;;1.80;;
43706;SDS011;61348;53.392;-6.248;2023-03-03T05:55:21;4.30;;;3.35;;
43706;SDS011;61348;53.392;-6.248;2023-03-03T05:57:48;3.75;;;2.30;;
43706;SDS011;61348;53.392;-6.248;2023-03-03T06:00:15;3.38;;;2.38;;
43706;SDS011;61348;53.392;-6.248;2023-03-03T06:02:42;6.38;;;2.78;;
43706;SDS011;61348;53.392;-6.248;2023-03-03T06:05:09;4.95;;;2.22;;
43706;SDS011;61348;53.392;-6.248;2023-03-03T06:07:37;3.63;;;2.83;;
43706;SDS011;61348;53.392;-6.248;2023-03-03T06:10:03;5.13;;;2.50;;
43706;SDS011;61348;53.392;-6.248;2023-03-03T06:12:31;6.25;;;3.65;;
43706;SDS011;61348;53.392;-6.248;2023-03-03T06:14:57;5.10;;;2.78;;
43706;SDS011;61348;53.392;-6.248;2023-03-03T06:17:24;4.20;;;2.75;;
43706;SDS011;61348;53.392;-6.248;2023-03-03T06:19:51;6.90;;;2.92;;
43706;SDS011;61348;53.392;-6.248;2023-03-03T06:22:18;4.03;;;2.90;;
43706;SDS011;61348;53.392;-6.248;2023-03-03T06:24:44;5.25;;;3.22;;
43706;SDS011;61348;53.392;-6.248;2023-03-03T06:27:11;6.95;;;3.65;;
43706;SDS011;61348;53.392;-6.248;2023-03-03T06:29:38;5.68;;;3.15;;
43706;SDS011;61348;53.392;-6.248;2023-03-03T06:32:04;11.88;;;3.88;;
43706;SDS011;61348;53.392;-6.248;2023-03-03T06:34:36;5.20;;;4.10;;
43706;SDS011;61348;53.392;-6.248;2023-03-03T06:37:03;6.03;;;3.47;;
43706;SDS011;61348;53.392;-6.248;2023-03-03T06:39:30;5.97;;;3.50;;
43706;SDS011;61348;53.392;-6.248;2023-03-03T06:41:56;13.93;;;3.95;;
43706;SDS011;61348;53.392;-6.248;2023-03-03T06:44:23;5.13;;;3.20;;
43706;SDS011;61348;53.392;-6.248;2023-03-03T06:46:53;5.25;;;3.75;;
43706;SDS011;61348;53.392;-6.248;2023-03-03T06:49:22;7.60;;;3.47;;
43706;SDS011;61348;53.392;-6.248;2023-03-03T06:51:49;9.52;;;2.85;;
43706;SDS011;61348;53.392;-6.248;2023-03-03T06:54:16;4.97;;;3.50;;
43706;SDS011;61348;53.392;-6.248;2023-03-03T06:56:45;7.15;;;3.30;;
43706;SDS011;61348;53.392;-6.248;2023-03-03T06:59:16;5.82;;;3.45;;
43706;SDS011;61348;53.392;-6.248;2023-03-03T07:01:45;8.35;;;3.78;;
43706;SDS011;61348;53.392;-6.248;2023-03-03T07:04:30;6.50;;;3.30;;
43706;SDS011;61348;53.392;-6.248;2023-03-03T07:07:06;4.57;;;3.42;;
43706;SDS011;61348;53.392;-6.248;2023-03-03T07:09:40;9.93;;;5.35;;
43706;SDS011;61348;53.392;-6.248;2023-03-03T07:12:11;5.78;;;4.53;;
43706;SDS011;61348;53.392;-6.248;2023-03-03T07:14:42;5.80;;;4.20;;
43706;SDS011;61348;53.392;-6.248;2023-03-03T07:17:14;8.13;;;4.05;;
43706;SDS011;61348;53.392;-6.248;2023-03-03T07:19:45;5.35;;;3.15;;
43706;SDS011;61348;53.392;-6.248;2023-03-03T07:24:43;5.78;;;4.07;;
43706;SDS011;61348;53.392;-6.248;2023-03-03T07:29:48;4.57;;;3.55;;
43706;SDS011;61348;53.392;-6.248;2023-03-03T07:34:55;8.77;;;3.60;;
43706;SDS011;61348;53.392;-6.248;2023-03-03T07:37:35;8.18;;;3.42;;
43706;SDS011;61348;53.392;-6.248;2023-03-03T07:40:05;5.40;;;3.15;;
43706;SDS011;61348;53.392;-6.248;2023-03-03T07:42:46;5.35;;;3.60;;
43706;SDS011;61348;53.392;-6.248;2023-03-03T07:45:29;5.05;;;2.63;;
43706;SDS011;61348;53.392;-6.248;2023-03-03T07:50:38;7.82;;;2.85;;
43706;SDS011;61348;53.392;-6.248;2023-03-03T07:53:40;7.43;;;3.67;;
43706;SDS011;61348;53.392;-6.248;2023-03-03T07:56:01;4.75;;;3.10;;
43706;SDS011;61348;53.392;-6.248;2023-03-03T07:58:40;9.43;;;5.70;;
43706;SDS011;61348;53.392;-6.248;2023-03-03T08:04:10;10.88;;;6.13;;
43706;SDS011;61348;53.392;-6.248;2023-03-03T08:06:46;8.68;;;5.75;;
43706;SDS011;61348;53.392;-6.248;2023-03-03T08:11:50;5.18;;;3.42;;
43706;SDS011;61348;53.392;-6.248;2023-03-03T08:14:24;9.35;;;3.60;;
43706;SDS011;61348;53.392;-6.248;2023-03-03T08:16:55;7.57;;;3.40;;
43706;SDS011;61348;53.392;-6.248;2023-03-03T08:19:25;7.85;;;4.30;;
43706;SDS011;61348;53.392;-6.248;2023-03-03T08:21:55;7.15;;;3.47;;
43706;SDS011;61348;53.392;-6.248;2023-03-03T08:24:27;7.30;;;3.95;;
43706;SDS011;61348;53.392;-6.248;2023-03-03T08:26:53;4.60;;;3.55;;
43706;SDS011;61348;53.392;-6.248;2023-03-03T08:29:20;7.65;;;3.63;;
43706;SDS011;61348;53.392;-6.248;2023-03-03T08:31:47;5.75;;;3.58;;
43706;SDS011;61348;53.392;-6.248;2023-03-03T08:34:14;7.93;;;4.38;;
43706;SDS011;61348;53.392;-6.248;2023-03-03T08:36:40;6.38;;;3.80;;
43706;SDS011;61348;53.392;-6.248;2023-03-03T08:39:07;9.65;;;4.45;;
43706;SDS011;61348;53.392;-6.248;2023-03-03T08:41:34;9.57;;;3.92;;
43706;SDS011;61348;53.392;-6.248;2023-03-03T08:44:01;4.78;;;2.88;;
43706;SDS011;61348;53.392;-6.248;2023-03-03T08:46:28;5.35;;;2.78;;
43706;SDS011;61348;53.392;-6.248;2023-03-03T08:48:54;4.10;;;2.33;;
43706;SDS011;61348;53.392;-6.248;2023-03-03T08:51:21;6.13;;;2.15;;
43706;SDS011;61348;53.392;-6.248;2023-03-03T08:53:48;14.45;;;4.85;;
43706;SDS011;61348;53.392;-6.248;2023-03-03T08:56:15;7.43;;;3.60;;
43706;SDS011;61348;53.392;-6.248;2023-03-03T08:58:44;3.75;;;2.88;;
43706;SDS011;61348;53.392;-6.248;2023-03-03T09:01:27;8.02;;;3.85;;
43706;SDS011;61348;53.392;-6.248;2023-03-03T09:03:54;7.00;;;3.05;;
43706;SDS011;61348;53.392;-6.248;2023-03-03T09:06:21;4.13;;;2.28;;
43706;SDS011;61348;53.392;-6.248;2023-03-03T09:08:47;3.00;;;1.35;;
43706;SDS011;61348;53.392;-6.248;2023-03-03T09:11:18;3.42;;;2.10;;
43706;SDS011;61348;53.392;-6.248;2023-03-03T09:14:01;5.03;;;2.92;;
43706;SDS011;61348;53.392;-6.248;2023-03-03T09:16:44;10.80;;;2.40;;
43706;SDS011;61348;53.392;-6.248;2023-03-03T09:21:56;5.07;;;1.80;;
43706;SDS011;61348;53.392;-6.248;2023-03-03T09:24:44;2.35;;;1.63;;
43706;SDS011;61348;53.392;-6.248;2023-03-03T09:27:14;3.50;;;2.22;;
43706;SDS011;61348;53.392;-6.248;2023-03-03T09:29:48;5.80;;;3.30;;
43706;SDS011;61348;53.392;-6.248;2023-03-03T09:35:25;2.67;;;1.27;;
43706;SDS011;61348;53.392;-6.248;2023-03-03T09:38:25;1.90;;;0.63;;
43706;SDS011;61348;53.392;-6.248;2023-03-03T09:40:54;2.88;;;1.10;;
43706;SDS011;61348;53.392;-6.248;2023-03-03T09:54:58;2.47;;;0.50;;
43706;SDS011;61348;53.392;-6.248;2023-03-03T09:57:49;5.35;;;0.77;;
43706;SDS011;61348;53.392;-6.248;2023-03-03T10:00:37;1.10;;;0.50;;
43706;SDS011;61348;53.392;-6.248;2023-03-03T10:06:10;0.47;;;0.40;;
43706;SDS011;61348;53.392;-6.248;2023-03-03T10:11:46;1.13;;;0.43;;
43706;SDS011;61348;53.392;-6.248;2023-03-03T10:14:37;2.10;;;0.70;;
43706;SDS011;61348;53.392;-6.248;2023-03-03T10:28:26;2.83;;;0.70;;
43706;SDS011;61348;53.392;-6.248;2023-03-03T10:39:20;5.72;;;1.85;;
43706;SDS011;61348;53.392;-6.248;2023-03-03T10:41:53;2.08;;;0.85;;
43706;SDS011;61348;53.392;-6.248;2023-03-03T10:44:52;4.63;;;0.82;;
43706;SDS011;61348;53.392;-6.248;2023-03-03T10:55:08;0.73;;;0.70;;
43706;SDS011;61348;53.392;-6.248;2023-03-03T11:00:40;7.25;;;1.77;;
43706;SDS011;61348;53.392;-6.248;2023-03-03T11:06:24;4.97;;;0.80;;
43706;SDS011;61348;53.392;-6.248;2023-03-03T11:09:43;2.55;;;0.60;;
43706;SDS011;61348;53.392;-6.248;2023-03-03T11:17:55;1.27;;;0.45;;
43706;SDS011;61348;53.392;-6.248;2023-03-03T11:31:45;2.40;;;0.82;;
43706;SDS011;61348;53.392;-6.248;2023-03-03T11:34:33;2.83;;;1.35;;
43706;SDS011;61348;53.392;-6.248;2023-03-03T11:37:06;2.00;;;0.70;;
43706;SDS011;61348;53.392;-6.248;2023-03-03T11:39:35;3.13;;;2.05;;
43706;SDS011;61348;53.392;-6.248;2023-03-03T11:44:49;2.40;;;1.25;;
43706;SDS011;61348;53.392;-6.248;2023-03-03T11:49:58;3.53;;;0.88;;
43706;SDS011;61348;53.392;-6.248;2023-03-03T12:12:38;8.98;;;2.28;;
43706;SDS011;61348;53.392;-6.248;2023-03-03T12:18:07;4.78;;;1.48;;
43706;SDS011;61348;53.392;-6.248;2023-03-03T12:32:09;1.73;;;1.23;;
43706;SDS011;61348;53.392;-6.248;2023-03-03T12:34:51;4.05;;;1.10;;
43706;SDS011;61348;53.392;-6.248;2023-03-03T12:40:01;2.80;;;0.80;;
43706;SDS011;61348;53.392;-6.248;2023-03-03T12:47:49;1.75;;;0.82;;
43706;SDS011;61348;53.392;-6.248;2023-03-03T12:50:24;3.28;;;0.70;;
43706;SDS011;61348;53.392;-6.248;2023-03-03T13:04:11;2.55;;;1.30;;
43706;SDS011;61348;53.392;-6.248;2023-03-03T13:06:45;1.20;;;0.90;;
43706;SDS011;61348;53.392;-6.248;2023-03-03T13:18:09;1.33;;;0.65;;
43706;SDS011;61348;53.392;-6.248;2023-03-03T13:20:59;2.30;;;0.82;;
43706;SDS011;61348;53.392;-6.248;2023-03-03T13:26:34;2.67;;;0.60;;
43706;SDS011;61348;53.392;-6.248;2023-03-03T13:31:52;1.63;;;0.45;;
43706;SDS011;61348;53.392;-6.248;2023-03-03T13:39:47;0.73;;;0.73;;
43706;SDS011;61348;53.392;-6.248;2023-03-03T13:42:37;0.28;;;0.28;;
43706;SDS011;61348;53.392;-6.248;2023-03-03T13:55:33;0.30;;;0.30;;
43706;SDS011;61348;53.392;-6.248;2023-03-03T14:00:53;2.63;;;0.68;;
43706;SDS011;61348;53.392;-6.248;2023-03-03T14:06:04;1.38;;;0.95;;
43706;SDS011;61348;53.392;-6.248;2023-03-03T14:08:43;2.22;;;0.60;;
43706;SDS011;61348;53.392;-6.248;2023-03-03T14:11:34;2.40;;;0.50;;
43706;SDS011;61348;53.392;-6.248;2023-03-03T14:14:28;1.95;;;0.38;;
43706;SDS011;61348;53.392;-6.248;2023-03-03T14:20:00;0.38;;;0.38;;
43706;SDS011;61348;53.392;-6.248;2023-03-03T14:22:55;0.30;;;0.30;;
43706;SDS011;61348;53.392;-6.248;2023-03-03T14:25:26;1.27;;;0.22;;
43706;SDS011;61348;53.392;-6.248;2023-03-03T14:28:19;1.48;;;0.45;;
43706;SDS011;61348;53.392;-6.248;2023-03-03T14:30:48;5.60;;;1.08;;
43706;SDS011;61348;53.392;-6.248;2023-03-03T14:33:20;1.30;;;0.80;;
43706;SDS011;61348;53.392;-6.248;2023-03-03T14:38:22;2.30;;;1.00;;
43706;SDS011;61348;53.392;-6.248;2023-03-03T14:41:02;2.53;;;0.90;;
43706;SDS011;61348;53.392;-6.248;2023-03-03T14:43:42;1.25;;;1.00;;
43706;SDS011;61348;53.392;-6.248;2023-03-03T14:48:58;10.98;;;1.83;;
43706;SDS011;61348;53.392;-6.248;2023-03-03T14:51:43;3.05;;;1.63;;
43706;SDS011;61348;53.392;-6.248;2023-03-03T14:54:15;3.47;;;0.65;;
43706;SDS011;61348;53.392;-6.248;2023-03-03T14:56:55;2.10;;;0.82;;
43706;SDS011;61348;53.392;-6.248;2023-03-03T14:59:23;2.55;;;1.40;;
43706;SDS011;61348;53.392;-6.248;2023-03-03T15:04:44;2.90;;;0.82;;
43706;SDS011;61348;53.392;-6.248;2023-03-03T15:09:53;0.60;;;0.60;;
43706;SDS011;61348;53.392;-6.248;2023-03-03T15:42:23;2.80;;;0.77;;
43706;SDS011;61348;53.392;-6.248;2023-03-03T15:47:37;3.00;;;0.47;;
43706;SDS011;61348;53.392;-6.248;2023-03-03T15:53:11;1.15;;;0.35;;
43706;SDS011;61348;53.392;-6.248;2023-03-03T16:03:44;3.13;;;2.05;;
43706;SDS011;61348;53.392;-6.248;2023-03-03T16:06:20;2.53;;;0.47;;
43706;SDS011;61348;53.392;-6.248;2023-03-03T16:11:46;1.50;;;0.88;;
43706;SDS011;61348;53.392;-6.248;2023-03-03T16:14:48;4.57;;;1.20;;
43706;SDS011;61348;53.392;-6.248;2023-03-03T16:20:02;3.22;;;1.08;;
43706;SDS011;61348;53.392;-6.248;2023-03-03T16:25:53;3.35;;;1.08;;
43706;SDS011;61348;53.392;-6.248;2023-03-03T16:36:25;2.33;;;1.23;;
43706;SDS011;61348;53.392;-6.248;2023-03-03T16:39:02;3.38;;;1.67;;
43706;SDS011;61348;53.392;-6.248;2023-03-03T16:45:11;0.77;;;0.73;;
43706;SDS011;61348;53.392;-6.248;2023-03-03T17:04:50;5.22;;;1.90;;
43706;SDS011;61348;53.392;-6.248;2023-03-03T17:10:25;2.33;;;1.80;;
43706;SDS011;61348;53.392;-6.248;2023-03-03T17:18:25;6.18;;;2.65;;
43706;SDS011;61348;53.392;-6.248;2023-03-03T17:20:58;3.72;;;2.63;;
43706;SDS011;61348;53.392;-6.248;2023-03-03T17:31:16;4.03;;;1.58;;
43706;SDS011;61348;53.392;-6.248;2023-03-03T17:45:09;15.15;;;5.03;;
43706;SDS011;61348;53.392;-6.248;2023-03-03T17:52:52;10.70;;;6.75;;
43706;SDS011;61348;53.392;-6.248;2023-03-03T17:55:42;5.45;;;3.03;;
43706;SDS011;61348;53.392;-6.248;2023-03-03T18:04:10;8.55;;;5.85;;
43706;SDS011;61348;53.392;-6.248;2023-03-03T18:12:31;8.57;;;4.82;;
43706;SDS011;61348;53.392;-6.248;2023-03-03T18:25:58;6.38;;;4.90;;
43706;SDS011;61348;53.392;-6.248;2023-03-03T18:28:43;5.75;;;4.13;;
43706;SDS011;61348;53.392;-6.248;2023-03-03T18:31:31;5.00;;;2.85;;
43706;SDS011;61348;53.392;-6.248;2023-03-03T18:36:57;3.17;;;2.38;;
43706;SDS011;61348;53.392;-6.248;2023-03-03T18:44:42;2.15;;;1.50;;
43706;SDS011;61348;53.392;-6.248;2023-03-03T18:47:10;4.35;;;1.92;;
43706;SDS011;61348;53.392;-6.248;2023-03-03T18:53:04;8.88;;;5.53;;
43706;SDS011;61348;53.392;-6.248;2023-03-03T18:55:40;16.08;;;7.50;;
43706;SDS011;61348;53.392;-6.248;2023-03-03T19:03:23;26.97;;;9.83;;
43706;SDS011;61348;53.392;-6.248;2023-03-03T19:05:49;10.82;;;6.70;;
43706;SDS011;61348;53.392;-6.248;2023-03-03T19:08:26;5.70;;;3.13;;
43706;SDS011;61348;53.392;-6.248;2023-03-03T19:10:56;6.32;;;3.05;;
43706;SDS011;61348;53.392;-6.248;2023-03-03T19:16:04;7.00;;;4.15;;
43706;SDS011;61348;53.392;-6.248;2023-03-03T19:21:25;6.82;;;4.60;;
43706;SDS011;61348;53.392;-6.248;2023-03-03T19:23:56;13.80;;;5.05;;
43706;SDS011;61348;53.392;-6.248;2023-03-03T19:40:30;12.07;;;6.28;;
43706;SDS011;61348;53.392;-6.248;2023-03-03T19:48:39;14.50;;;8.32;;
43706;SDS011;61348;53.392;-6.248;2023-03-03T19:51:24;16.67;;;8.60;;
43706;SDS011;61348;53.392;-6.248;2023-03-03T19:56:40;15.18;;;6.85;;
43706;SDS011;61348;53.392;-6.248;2023-03-03T20:02:10;10.75;;;8.07;;
43706;SDS011;61348;53.392;-6.248;2023-03-03T20:21:25;6.68;;;4.10;;
43706;SDS011;61348;53.392;-6.248;2023-03-03T20:29:38;5.45;;;3.80;;
43706;SDS011;61348;53.392;-6.248;2023-03-03T20:41:08;6.95;;;3.20;;
43706;SDS011;61348;53.392;-6.248;2023-03-03T20:59:12;4.05;;;3.00;;
43706;SDS011;61348;53.392;-6.248;2023-03-03T21:04:27;4.80;;;2.50;;
43706;SDS011;61348;53.392;-6.248;2023-03-03T21:06:56;6.82;;;3.20;;
43706;SDS011;61348;53.392;-6.248;2023-03-03T21:11:56;4.88;;;2.22;;
43706;SDS011;61348;53.392;-6.248;2023-03-03T21:14:30;5.72;;;2.20;;
43706;SDS011;61348;53.392;-6.248;2023-03-03T21:17:23;4.18;;;2.60;;
43706;SDS011;61348;53.392;-6.248;2023-03-03T21:19:51;5.13;;;2.10;;
43706;SDS011;61348;53.392;-6.248;2023-03-03T21:22:17;4.22;;;2.60;;
43706;SDS011;61348;53.392;-6.248;2023-03-03T21:24:48;3.38;;;2.55;;
43706;SDS011;61348;53.392;-6.248;2023-03-03T21:27:27;3.78;;;2.45;;
43706;SDS011;61348;53.392;-6.248;2023-03-03T21:30:02;5.15;;;2.00;;
43706;SDS011;61348;53.392;-6.248;2023-03-03T21:35:09;3.47;;;2.38;;
43706;SDS011;61348;53.392;-6.248;2023-03-03T21:37:42;7.05;;;3.80;;
43706;SDS011;61348;53.392;-6.248;2023-03-03T21:40:26;7.90;;;3.90;;
43706;SDS011;61348;53.392;-6.248;2023-03-03T21:42:55;10.32;;;4.18;;
43706;SDS011;61348;53.392;-6.248;2023-03-03T21:45:24;4.57;;;3.38;;
43706;SDS011;61348;53.392;-6.248;2023-03-03T21:47:51;3.97;;;2.72;;
43706;SDS011;61348;53.392;-6.248;2023-03-03T21:50:26;4.03;;;2.38;;
43706;SDS011;61348;53.392;-6.248;2023-03-03T21:52:56;2.60;;;2.25;;
43706;SDS011;61348;53.392;-6.248;2023-03-03T21:55:23;3.78;;;2.13;;
43706;SDS011;61348;53.392;-6.248;2023-03-03T21:57:52;5.25;;;1.95;;
43706;SDS011;61348;53.392;-6.248;2023-03-03T22:00:18;2.83;;;1.92;;
43706;SDS011;61348;53.392;-6.248;2023-03-03T22:02:45;7.00;;;2.50;;
43706;SDS011;61348;53.392;-6.248;2023-03-03T22:05:12;4.05;;;2.30;;
43706;SDS011;61348;53.392;-6.248;2023-03-03T22:07:39;2.63;;;2.00;;
43706;SDS011;61348;53.392;-6.248;2023-03-03T22:10:05;2.45;;;1.70;;
43706;SDS011;61348;53.392;-6.248;2023-03-03T22:12:35;3.42;;;1.60;;
43706;SDS011;61348;53.392;-6.248;2023-03-03T22:15:02;3.92;;;1.90;;
43706;SDS011;61348;53.392;-6.248;2023-03-03T22:17:29;4.95;;;2.28;;
43706;SDS011;61348;53.392;-6.248;2023-03-03T22:19:58;3.58;;;1.75;;
43706;SDS011;61348;53.392;-6.248;2023-03-03T22:22:24;5.68;;;1.08;;
43706;SDS011;61348;53.392;-6.248;2023-03-03T22:24:51;2.65;;;1.63;;
43706;SDS011;61348;53.392;-6.248;2023-03-03T22:27:19;4.32;;;2.17;;
43706;SDS011;61348;53.392;-6.248;2023-03-03T22:29:45;1.95;;;1.10;;
43706;SDS011;61348;53.392;-6.248;2023-03-03T22:32:13;5.95;;;1.42;;
43706;SDS011;61348;53.392;-6.248;2023-03-03T22:34:40;2.33;;;1.40;;